sensor_id;sensor_type;location;lat;lon;timestamp;P1;durP1;ratioP1;P2;durP2;ratioP2
60312;SDS011;46158;52.850;6.970;2023-10-19T00:00:34;11.85;;;4.57;;
60312;SDS011;46158;52.850;6.970;2023-10-19T00:03:01;13.35;;;4.93;;
60312;SDS011;46158;52.850;6.970;2023-10-19T00:05:28;15.02;;;5.22;;
60312;SDS011;46158;52.850;6.970;2023-10-19T00:07:56;13.48;;;5.03;;
60312;SDS011;46158;52.850;6.970;2023-10-19T00:12:54;11.88;;;4.72;;
60312;SDS011;46158;52.850;6.970;2023-10-19T00:15:37;14.98;;;5.45;;
60312;SDS011;46158;52.850;6.970;2023-10-19T00:18:23;16.13;;;5.82;;
60312;SDS011;46158;52.850;6.970;2023-10-19T00:20:55;15.35;;;5.15;;
60312;SDS011;46158;52.850;6.970;2023-10-19T00:23:21;15.30;;;5.30;;
60312;SDS011;46158;52.850;6.970;2023-10-19T00:25:58;15.35;;;4.93;;
60312;SDS011;46158;52.850;6.970;2023-10-19T00:28:25;15.80;;;5.30;;
60312;SDS011;46158;52.850;6.970;2023-10-19T00:30:54;15.13;;;5.13;;
60312;SDS011;46158;52.850;6.970;2023-10-19T00:33:28;17.30;;;5.82;;
60312;SDS011;46158;52.850;6.970;2023-10-19T00:35:54;13.77;;;5.40;;
60312;SDS011;46158;52.850;6.970;2023-10-19T00:38:25;15.02;;;5.35;;
60312;SDS011;46158;52.850;6.970;2023-10-19T00:40:52;13.00;;;5.00;;
60312;SDS011;46158;52.850;6.970;2023-10-19T00:43:28;13.02;;;5.13;;
60312;SDS011;46158;52.850;6.970;2023-10-19T00:45:58;15.15;;;5.10;;
60312;SDS011;46158;52.850;6.970;2023-10-19T00:48:26;14.15;;;5.10;;
60312;SDS011;46158;52.850;6.970;2023-10-19T00:50:53;14.60;;;5.05;;
60312;SDS011;46158;52.850;6.970;2023-10-19T00:53:32;14.43;;;5.47;;
60312;SDS011;46158;52.850;6.970;2023-10-19T00:56:03;15.43;;;5.35;;
60312;SDS011;46158;52.850;6.970;2023-10-19T00:58:32;15.32;;;5.10;;
60312;SDS011;46158;52.850;6.970;2023-10-19T01:01:01;14.65;;;5.45;;
60312;SDS011;46158;52.850;6.970;2023-10-19T01:03:31;16.15;;;5.30;;
60312;SDS011;46158;52.850;6.970;2023-10-19T01:06:01;14.80;;;5.50;;
60312;SDS011;46158;52.850;6.970;2023-10-19T01:08:30;13.87;;;5.27;;
60312;SDS011;46158;52.850;6.970;2023-10-19T01:11:06;14.80;;;5.38;;
60312;SDS011;46158;52.850;6.970;2023-10-19T01:13:36;12.90;;;5.05;;
60312;SDS011;46158;52.850;6.970;2023-10-19T01:16:03;14.45;;;5.18;;
60312;SDS011;46158;52.850;6.970;2023-10-19T01:18:30;15.45;;;5.00;;
60312;SDS011;46158;52.850;6.970;2023-10-19T01:20:58;15.35;;;5.80;;
60312;SDS011;46158;52.850;6.970;2023-10-19T01:23:28;15.07;;;5.80;;
60312;SDS011;46158;52.850;6.970;2023-10-19T01:25:57;16.52;;;5.65;;
60312;SDS011;46158;52.850;6.970;2023-10-19T01:28:24;14.40;;;5.55;;
60312;SDS011;46158;52.850;6.970;2023-10-19T01:31:16;14.80;;;5.30;;
60312;SDS011;46158;52.850;6.970;2023-10-19T01:33:47;14.73;;;5.55;;
60312;SDS011;46158;52.850;6.970;2023-10-19T01:36:14;14.95;;;5.63;;
60312;SDS011;46158;52.850;6.970;2023-10-19T01:38:50;16.67;;;5.47;;
60312;SDS011;46158;52.850;6.970;2023-10-19T01:43:49;15.52;;;5.38;;
60312;SDS011;46158;52.850;6.970;2023-10-19T01:46:18;14.70;;;5.47;;
60312;SDS011;46158;52.850;6.970;2023-10-19T01:48:56;16.50;;;5.78;;
60312;SDS011;46158;52.850;6.970;2023-10-19T01:51:22;14.82;;;5.57;;
60312;SDS011;46158;52.850;6.970;2023-10-19T01:53:50;15.48;;;5.75;;
60312;SDS011;46158;52.850;6.970;2023-10-19T01:56:16;16.45;;;5.93;;
60312;SDS011;46158;52.850;6.970;2023-10-19T01:58:43;15.02;;;5.82;;
60312;SDS011;46158;52.850;6.970;2023-10-19T02:01:14;15.27;;;5.65;;
60312;SDS011;46158;52.850;6.970;2023-10-19T02:03:47;16.48;;;5.68;;
60312;SDS011;46158;52.850;6.970;2023-10-19T02:06:20;15.27;;;5.38;;
60312;SDS011;46158;52.850;6.970;2023-10-19T02:08:51;15.15;;;6.00;;
60312;SDS011;46158;52.850;6.970;2023-10-19T02:11:26;13.95;;;5.45;;
60312;SDS011;46158;52.850;6.970;2023-10-19T02:13:53;13.43;;;5.55;;
60312;SDS011;46158;52.850;6.970;2023-10-19T02:16:21;16.10;;;6.00;;
60312;SDS011;46158;52.850;6.970;2023-10-19T02:18:50;15.52;;;5.82;;
60312;SDS011;46158;52.850;6.970;2023-10-19T02:21:17;16.27;;;5.85;;
60312;SDS011;46158;52.850;6.970;2023-10-19T02:23:55;15.45;;;5.82;;
60312;SDS011;46158;52.850;6.970;2023-10-19T02:26:22;16.25;;;5.85;;
60312;SDS011;46158;52.850;6.970;2023-10-19T02:28:51;16.15;;;5.78;;
60312;SDS011;46158;52.850;6.970;2023-10-19T02:31:17;15.00;;;5.75;;
60312;SDS011;46158;52.850;6.970;2023-10-19T02:33:47;15.57;;;5.67;;
60312;SDS011;46158;52.850;6.970;2023-10-19T02:38:44;16.40;;;5.85;;
60312;SDS011;46158;52.850;6.970;2023-10-19T02:41:14;14.57;;;5.60;;
60312;SDS011;46158;52.850;6.970;2023-10-19T02:43:41;15.88;;;5.75;;
60312;SDS011;46158;52.850;6.970;2023-10-19T02:46:11;15.98;;;6.00;;
60312;SDS011;46158;52.850;6.970;2023-10-19T02:48:38;15.77;;;5.88;;
60312;SDS011;46158;52.850;6.970;2023-10-19T02:51:09;15.32;;;5.60;;
60312;SDS011;46158;52.850;6.970;2023-10-19T02:53:36;14.55;;;5.57;;
60312;SDS011;46158;52.850;6.970;2023-10-19T02:56:12;16.15;;;5.97;;
60312;SDS011;46158;52.850;6.970;2023-10-19T03:01:15;13.95;;;5.28;;
60312;SDS011;46158;52.850;6.970;2023-10-19T03:03:46;15.88;;;5.70;;
60312;SDS011;46158;52.850;6.970;2023-10-19T03:06:25;16.38;;;5.68;;
60312;SDS011;46158;52.850;6.970;2023-10-19T03:08:58;15.10;;;5.65;;
60312;SDS011;46158;52.850;6.970;2023-10-19T03:11:29;15.27;;;5.55;;
60312;SDS011;46158;52.850;6.970;2023-10-19T03:13:58;14.68;;;5.30;;
60312;SDS011;46158;52.850;6.970;2023-10-19T03:16:24;14.88;;;5.47;;
60312;SDS011;46158;52.850;6.970;2023-10-19T03:18:52;16.88;;;5.65;;
60312;SDS011;46158;52.850;6.970;2023-10-19T03:21:20;16.27;;;5.75;;
60312;SDS011;46158;52.850;6.970;2023-10-19T03:23:51;14.52;;;5.30;;
60312;SDS011;46158;52.850;6.970;2023-10-19T03:26:22;15.05;;;5.45;;
60312;SDS011;46158;52.850;6.970;2023-10-19T03:28:52;13.93;;;5.28;;
60312;SDS011;46158;52.850;6.970;2023-10-19T03:31:25;15.00;;;5.68;;
60312;SDS011;46158;52.850;6.970;2023-10-19T03:33:51;14.23;;;5.30;;
60312;SDS011;46158;52.850;6.970;2023-10-19T03:36:23;12.80;;;5.18;;
60312;SDS011;46158;52.850;6.970;2023-10-19T03:38:50;13.57;;;5.00;;
60312;SDS011;46158;52.850;6.970;2023-10-19T03:41:18;12.00;;;4.80;;
60312;SDS011;46158;52.850;6.970;2023-10-19T03:43:51;12.38;;;4.90;;
60312;SDS011;46158;52.850;6.970;2023-10-19T03:46:19;15.20;;;5.43;;
60312;SDS011;46158;52.850;6.970;2023-10-19T03:49:02;13.32;;;5.15;;
60312;SDS011;46158;52.850;6.970;2023-10-19T03:51:38;13.23;;;5.05;;
60312;SDS011;46158;52.850;6.970;2023-10-19T03:54:23;13.77;;;5.00;;
60312;SDS011;46158;52.850;6.970;2023-10-19T03:56:52;14.77;;;5.55;;
60312;SDS011;46158;52.850;6.970;2023-10-19T03:59:20;11.85;;;4.75;;
60312;SDS011;46158;52.850;6.970;2023-10-19T04:01:46;13.23;;;4.88;;
60312;SDS011;46158;52.850;6.970;2023-10-19T04:04:12;12.00;;;4.60;;
60312;SDS011;46158;52.850;6.970;2023-10-19T04:06:41;14.00;;;5.15;;
60312;SDS011;46158;52.850;6.970;2023-10-19T04:09:13;10.70;;;4.40;;
60312;SDS011;46158;52.850;6.970;2023-10-19T04:11:42;11.07;;;4.90;;
60312;SDS011;46158;52.850;6.970;2023-10-19T04:14:15;12.30;;;4.50;;
60312;SDS011;46158;52.850;6.970;2023-10-19T04:16:41;11.05;;;4.55;;
60312;SDS011;46158;52.850;6.970;2023-10-19T04:19:10;12.73;;;4.85;;
60312;SDS011;46158;52.850;6.970;2023-10-19T04:21:36;10.38;;;4.38;;
60312;SDS011;46158;52.850;6.970;2023-10-19T04:24:05;12.13;;;4.53;;
60312;SDS011;46158;52.850;6.970;2023-10-19T04:26:32;11.13;;;4.57;;
60312;SDS011;46158;52.850;6.970;2023-10-19T04:29:02;12.70;;;4.63;;
60312;SDS011;46158;52.850;6.970;2023-10-19T04:31:36;12.93;;;4.75;;
60312;SDS011;46158;52.850;6.970;2023-10-19T04:34:03;12.43;;;4.47;;
60312;SDS011;46158;52.850;6.970;2023-10-19T04:36:32;12.00;;;4.68;;
60312;SDS011;46158;52.850;6.970;2023-10-19T04:38:59;11.57;;;4.40;;
60312;SDS011;46158;52.850;6.970;2023-10-19T04:41:25;14.65;;;4.57;;
60312;SDS011;46158;52.850;6.970;2023-10-19T04:43:54;12.60;;;4.93;;
60312;SDS011;46158;52.850;6.970;2023-10-19T04:46:22;13.32;;;4.50;;
60312;SDS011;46158;52.850;6.970;2023-10-19T04:48:48;10.25;;;4.18;;
60312;SDS011;46158;52.850;6.970;2023-10-19T04:51:15;12.45;;;4.47;;
60312;SDS011;46158;52.850;6.970;2023-10-19T04:53:42;11.85;;;4.63;;
60312;SDS011;46158;52.850;6.970;2023-10-19T04:56:07;10.20;;;4.32;;
60312;SDS011;46158;52.850;6.970;2023-10-19T04:58:37;12.57;;;4.50;;
60312;SDS011;46158;52.850;6.970;2023-10-19T05:01:04;11.13;;;4.30;;
60312;SDS011;46158;52.850;6.970;2023-10-19T05:03:30;11.95;;;4.38;;
60312;SDS011;46158;52.850;6.970;2023-10-19T05:05:56;9.60;;;4.22;;
60312;SDS011;46158;52.850;6.970;2023-10-19T05:08:22;9.10;;;3.95;;
60312;SDS011;46158;52.850;6.970;2023-10-19T05:10:53;11.65;;;4.22;;
60312;SDS011;46158;52.850;6.970;2023-10-19T05:13:20;11.80;;;4.20;;
60312;SDS011;46158;52.850;6.970;2023-10-19T05:15:48;11.03;;;4.40;;
60312;SDS011;46158;52.850;6.970;2023-10-19T05:18:14;10.98;;;4.35;;
60312;SDS011;46158;52.850;6.970;2023-10-19T05:20:40;12.48;;;4.05;;
60312;SDS011;46158;52.850;6.970;2023-10-19T05:23:09;10.57;;;4.00;;
60312;SDS011;46158;52.850;6.970;2023-10-19T05:25:35;9.73;;;4.00;;
60312;SDS011;46158;52.850;6.970;2023-10-19T05:28:03;10.13;;;4.00;;
60312;SDS011;46158;52.850;6.970;2023-10-19T05:30:30;11.70;;;4.15;;
60312;SDS011;46158;52.850;6.970;2023-10-19T05:32:57;10.88;;;4.13;;
60312;SDS011;46158;52.850;6.970;2023-10-19T05:35:23;12.82;;;4.00;;
60312;SDS011;46158;52.850;6.970;2023-10-19T05:37:54;9.35;;;3.80;;
60312;SDS011;46158;52.850;6.970;2023-10-19T05:42:56;11.65;;;4.10;;
60312;SDS011;46158;52.850;6.970;2023-10-19T05:45:23;12.15;;;4.00;;
60312;SDS011;46158;52.850;6.970;2023-10-19T05:47:49;11.90;;;4.15;;
60312;SDS011;46158;52.850;6.970;2023-10-19T05:50:15;10.82;;;3.80;;
60312;SDS011;46158;52.850;6.970;2023-10-19T05:52:42;12.10;;;4.05;;
60312;SDS011;46158;52.850;6.970;2023-10-19T05:55:09;11.45;;;3.70;;
60312;SDS011;46158;52.850;6.970;2023-10-19T05:57:38;12.43;;;4.00;;
60312;SDS011;46158;52.850;6.970;2023-10-19T06:00:08;10.82;;;3.92;;
60312;SDS011;46158;52.850;6.970;2023-10-19T06:02:44;12.07;;;4.18;;
60312;SDS011;46158;52.850;6.970;2023-10-19T06:05:11;15.15;;;4.20;;
60312;SDS011;46158;52.850;6.970;2023-10-19T06:07:40;16.02;;;4.28;;
60312;SDS011;46158;52.850;6.970;2023-10-19T06:10:19;14.48;;;4.05;;
60312;SDS011;46158;52.850;6.970;2023-10-19T06:12:50;14.73;;;4.13;;
60312;SDS011;46158;52.850;6.970;2023-10-19T06:15:17;14.73;;;4.07;;
60312;SDS011;46158;52.850;6.970;2023-10-19T06:17:45;14.85;;;4.57;;
60312;SDS011;46158;52.850;6.970;2023-10-19T06:20:13;14.93;;;4.10;;
60312;SDS011;46158;52.850;6.970;2023-10-19T06:22:49;14.75;;;4.40;;
60312;SDS011;46158;52.850;6.970;2023-10-19T06:25:19;13.52;;;4.25;;
60312;SDS011;46158;52.850;6.970;2023-10-19T06:27:46;14.70;;;4.18;;
60312;SDS011;46158;52.850;6.970;2023-10-19T06:30:13;16.38;;;4.28;;
60312;SDS011;46158;52.850;6.970;2023-10-19T06:32:44;14.35;;;4.15;;
60312;SDS011;46158;52.850;6.970;2023-10-19T06:35:12;13.10;;;4.00;;
60312;SDS011;46158;52.850;6.970;2023-10-19T06:37:38;15.63;;;3.92;;
60312;SDS011;46158;52.850;6.970;2023-10-19T06:40:04;15.15;;;4.25;;
60312;SDS011;46158;52.850;6.970;2023-10-19T06:42:31;12.32;;;4.00;;
60312;SDS011;46158;52.850;6.970;2023-10-19T06:44:57;14.05;;;4.18;;
60312;SDS011;46158;52.850;6.970;2023-10-19T06:47:22;13.65;;;3.78;;
60312;SDS011;46158;52.850;6.970;2023-10-19T06:49:49;12.50;;;3.67;;
60312;SDS011;46158;52.850;6.970;2023-10-19T06:52:15;10.73;;;3.63;;
60312;SDS011;46158;52.850;6.970;2023-10-19T06:54:41;13.07;;;3.80;;
60312;SDS011;46158;52.850;6.970;2023-10-19T06:57:07;11.50;;;3.55;;
60312;SDS011;46158;52.850;6.970;2023-10-19T06:59:33;12.13;;;3.70;;
60312;SDS011;46158;52.850;6.970;2023-10-19T07:02:00;13.02;;;3.55;;
60312;SDS011;46158;52.850;6.970;2023-10-19T07:04:26;11.95;;;3.60;;
60312;SDS011;46158;52.850;6.970;2023-10-19T07:06:53;12.35;;;3.50;;
60312;SDS011;46158;52.850;6.970;2023-10-19T07:09:19;10.07;;;3.53;;
60312;SDS011;46158;52.850;6.970;2023-10-19T07:11:46;13.27;;;3.92;;
60312;SDS011;46158;52.850;6.970;2023-10-19T07:14:12;10.48;;;3.60;;
60312;SDS011;46158;52.850;6.970;2023-10-19T07:16:39;9.52;;;3.60;;
60312;SDS011;46158;52.850;6.970;2023-10-19T07:19:05;11.82;;;3.45;;
60312;SDS011;46158;52.850;6.970;2023-10-19T07:21:31;12.57;;;3.97;;
60312;SDS011;46158;52.850;6.970;2023-10-19T07:24:00;8.88;;;3.42;;
60312;SDS011;46158;52.850;6.970;2023-10-19T07:26:30;12.20;;;3.47;;
60312;SDS011;46158;52.850;6.970;2023-10-19T07:28:58;12.25;;;3.42;;
60312;SDS011;46158;52.850;6.970;2023-10-19T07:31:24;9.98;;;3.40;;
60312;SDS011;46158;52.850;6.970;2023-10-19T07:33:52;11.63;;;3.45;;
60312;SDS011;46158;52.850;6.970;2023-10-19T07:36:20;6.85;;;3.17;;
60312;SDS011;46158;52.850;6.970;2023-10-19T07:38:48;11.98;;;3.50;;
60312;SDS011;46158;52.850;6.970;2023-10-19T07:41:13;10.68;;;3.50;;
60312;SDS011;46158;52.850;6.970;2023-10-19T07:43:39;10.48;;;3.35;;
60312;SDS011;46158;52.850;6.970;2023-10-19T07:46:04;12.55;;;3.45;;
60312;SDS011;46158;52.850;6.970;2023-10-19T07:48:30;9.40;;;2.90;;
60312;SDS011;46158;52.850;6.970;2023-10-19T07:50:56;9.32;;;3.00;;
60312;SDS011;46158;52.850;6.970;2023-10-19T07:53:22;9.98;;;3.10;;
60312;SDS011;46158;52.850;6.970;2023-10-19T07:55:49;9.93;;;3.20;;
60312;SDS011;46158;52.850;6.970;2023-10-19T07:58:15;6.72;;;2.97;;
60312;SDS011;46158;52.850;6.970;2023-10-19T08:00:41;8.68;;;3.15;;
60312;SDS011;46158;52.850;6.970;2023-10-19T08:03:07;7.63;;;2.90;;
60312;SDS011;46158;52.850;6.970;2023-10-19T08:05:34;7.60;;;2.75;;
60312;SDS011;46158;52.850;6.970;2023-10-19T08:08:01;10.63;;;3.30;;
60312;SDS011;46158;52.850;6.970;2023-10-19T08:10:29;10.90;;;3.10;;
60312;SDS011;46158;52.850;6.970;2023-10-19T08:12:55;7.63;;;3.03;;
60312;SDS011;46158;52.850;6.970;2023-10-19T08:15:21;9.82;;;3.10;;
60312;SDS011;46158;52.850;6.970;2023-10-19T08:17:48;8.32;;;3.03;;
60312;SDS011;46158;52.850;6.970;2023-10-19T08:20:15;7.15;;;2.90;;
60312;SDS011;46158;52.850;6.970;2023-10-19T08:22:44;8.88;;;2.85;;
60312;SDS011;46158;52.850;6.970;2023-10-19T08:25:11;9.55;;;2.88;;
60312;SDS011;46158;52.850;6.970;2023-10-19T08:27:39;7.45;;;2.90;;
60312;SDS011;46158;52.850;6.970;2023-10-19T08:30:15;8.52;;;2.95;;
60312;SDS011;46158;52.850;6.970;2023-10-19T08:32:44;8.10;;;2.80;;
60312;SDS011;46158;52.850;6.970;2023-10-19T08:35:18;9.48;;;2.90;;
60312;SDS011;46158;52.850;6.970;2023-10-19T08:37:49;8.27;;;3.03;;
60312;SDS011;46158;52.850;6.970;2023-10-19T08:40:15;6.65;;;2.83;;
60312;SDS011;46158;52.850;6.970;2023-10-19T08:42:42;6.22;;;2.60;;
60312;SDS011;46158;52.850;6.970;2023-10-19T08:45:12;9.43;;;2.90;;
60312;SDS011;46158;52.850;6.970;2023-10-19T08:50:26;9.60;;;3.05;;
60312;SDS011;46158;52.850;6.970;2023-10-19T08:53:02;6.50;;;2.67;;
60312;SDS011;46158;52.850;6.970;2023-10-19T08:55:28;5.45;;;2.78;;
60312;SDS011;46158;52.850;6.970;2023-10-19T08:57:55;7.65;;;2.90;;
60312;SDS011;46158;52.850;6.970;2023-10-19T09:00:23;7.53;;;2.80;;
60312;SDS011;46158;52.850;6.970;2023-10-19T09:02:52;6.35;;;2.67;;
60312;SDS011;46158;52.850;6.970;2023-10-19T09:05:19;6.55;;;2.78;;
60312;SDS011;46158;52.850;6.970;2023-10-19T09:07:47;8.93;;;2.97;;
60312;SDS011;46158;52.850;6.970;2023-10-19T09:10:20;6.10;;;2.90;;
60312;SDS011;46158;52.850;6.970;2023-10-19T09:13:08;6.30;;;2.72;;
60312;SDS011;46158;52.850;6.970;2023-10-19T09:15:34;8.70;;;2.72;;
60312;SDS011;46158;52.850;6.970;2023-10-19T09:18:20;7.28;;;3.00;;
60312;SDS011;46158;52.850;6.970;2023-10-19T09:20:48;8.23;;;2.92;;
60312;SDS011;46158;52.850;6.970;2023-10-19T09:23:35;6.10;;;2.70;;
60312;SDS011;46158;52.850;6.970;2023-10-19T09:26:01;7.07;;;2.72;;
60312;SDS011;46158;52.850;6.970;2023-10-19T09:28:34;6.75;;;2.90;;
60312;SDS011;46158;52.850;6.970;2023-10-19T09:31:01;6.80;;;3.13;;
60312;SDS011;46158;52.850;6.970;2023-10-19T09:33:28;5.97;;;2.70;;
60312;SDS011;46158;52.850;6.970;2023-10-19T09:35:55;5.40;;;2.67;;
60312;SDS011;46158;52.850;6.970;2023-10-19T09:38:26;5.97;;;2.50;;
60312;SDS011;46158;52.850;6.970;2023-10-19T09:40:52;5.28;;;2.60;;
60312;SDS011;46158;52.850;6.970;2023-10-19T09:43:33;6.65;;;2.63;;
60312;SDS011;46158;52.850;6.970;2023-10-19T09:46:07;6.35;;;2.65;;
60312;SDS011;46158;52.850;6.970;2023-10-19T09:48:39;6.57;;;2.53;;
60312;SDS011;46158;52.850;6.970;2023-10-19T09:51:07;6.70;;;2.63;;
60312;SDS011;46158;52.850;6.970;2023-10-19T09:53:34;6.80;;;2.80;;
60312;SDS011;46158;52.850;6.970;2023-10-19T09:56:01;6.68;;;2.80;;
60312;SDS011;46158;52.850;6.970;2023-10-19T09:58:36;6.25;;;2.53;;
60312;SDS011;46158;52.850;6.970;2023-10-19T10:01:20;5.60;;;2.63;;
60312;SDS011;46158;52.850;6.970;2023-10-19T10:03:49;6.75;;;2.83;;
60312;SDS011;46158;52.850;6.970;2023-10-19T10:07:02;7.45;;;2.75;;
60312;SDS011;46158;52.850;6.970;2023-10-19T10:09:20;5.75;;;2.50;;
60312;SDS011;46158;52.850;6.970;2023-10-19T10:11:48;5.78;;;2.50;;
60312;SDS011;46158;52.850;6.970;2023-10-19T10:14:22;6.03;;;2.70;;
60312;SDS011;46158;52.850;6.970;2023-10-19T10:17:03;4.78;;;2.40;;
60312;SDS011;46158;52.850;6.970;2023-10-19T10:19:34;5.93;;;2.53;;
60312;SDS011;46158;52.850;6.970;2023-10-19T10:22:04;6.13;;;2.45;;
60312;SDS011;46158;52.850;6.970;2023-10-19T10:24:45;5.55;;;2.60;;
60312;SDS011;46158;52.850;6.970;2023-10-19T10:27:13;5.47;;;2.58;;
60312;SDS011;46158;52.850;6.970;2023-10-19T10:29:56;4.45;;;2.25;;
60312;SDS011;46158;52.850;6.970;2023-10-19T10:35:08;5.93;;;2.53;;
60312;SDS011;46158;52.850;6.970;2023-10-19T10:37:37;4.88;;;2.20;;
60312;SDS011;46158;52.850;6.970;2023-10-19T10:40:05;7.03;;;2.45;;
60312;SDS011;46158;52.850;6.970;2023-10-19T10:42:31;4.45;;;2.28;;
60312;SDS011;46158;52.850;6.970;2023-10-19T10:44:59;5.32;;;2.40;;
60312;SDS011;46158;52.850;6.970;2023-10-19T10:47:24;4.47;;;2.05;;
60312;SDS011;46158;52.850;6.970;2023-10-19T10:49:51;7.35;;;2.60;;
60312;SDS011;46158;52.850;6.970;2023-10-19T10:52:31;21.58;;;9.70;;
60312;SDS011;46158;52.850;6.970;2023-10-19T10:54:59;26.35;;;16.48;;
60312;SDS011;46158;52.850;6.970;2023-10-19T10:57:38;27.75;;;16.33;;
60312;SDS011;46158;52.850;6.970;2023-10-19T11:00:14;27.77;;;16.58;;
60312;SDS011;46158;52.850;6.970;2023-10-19T11:02:45;26.45;;;17.30;;
60312;SDS011;46158;52.850;6.970;2023-10-19T11:05:13;28.27;;;16.50;;
60312;SDS011;46158;52.850;6.970;2023-10-19T11:07:39;26.85;;;16.73;;
60312;SDS011;46158;52.850;6.970;2023-10-19T11:10:06;26.25;;;15.93;;
60312;SDS011;46158;52.850;6.970;2023-10-19T11:12:34;26.23;;;16.02;;
60312;SDS011;46158;52.850;6.970;2023-10-19T11:15:01;26.50;;;16.85;;
60312;SDS011;46158;52.850;6.970;2023-10-19T11:17:41;24.67;;;15.85;;
60312;SDS011;46158;52.850;6.970;2023-10-19T11:20:09;28.98;;;17.33;;
60312;SDS011;46158;52.850;6.970;2023-10-19T11:22:49;26.45;;;15.90;;
60312;SDS011;46158;52.850;6.970;2023-10-19T11:25:19;24.70;;;15.43;;
60312;SDS011;46158;52.850;6.970;2023-10-19T11:27:46;26.77;;;16.20;;
60312;SDS011;46158;52.850;6.970;2023-10-19T11:30:22;24.88;;;15.43;;
60312;SDS011;46158;52.850;6.970;2023-10-19T11:32:56;25.52;;;16.10;;
60312;SDS011;46158;52.850;6.970;2023-10-19T11:35:23;25.52;;;15.27;;
60312;SDS011;46158;52.850;6.970;2023-10-19T11:37:52;23.42;;;14.27;;
60312;SDS011;46158;52.850;6.970;2023-10-19T11:40:22;24.05;;;14.40;;
60312;SDS011;46158;52.850;6.970;2023-10-19T11:42:50;25.23;;;14.65;;
60312;SDS011;46158;52.850;6.970;2023-10-19T11:45:16;23.05;;;13.23;;
60312;SDS011;46158;52.850;6.970;2023-10-19T11:47:43;23.50;;;13.02;;
60312;SDS011;46158;52.850;6.970;2023-10-19T11:50:09;23.17;;;13.57;;
60312;SDS011;46158;52.850;6.970;2023-10-19T11:52:43;22.33;;;12.82;;
60312;SDS011;46158;52.850;6.970;2023-10-19T11:55:13;23.63;;;12.63;;
60312;SDS011;46158;52.850;6.970;2023-10-19T11:57:39;22.30;;;11.57;;
60312;SDS011;46158;52.850;6.970;2023-10-19T12:00:07;23.20;;;12.23;;
60312;SDS011;46158;52.850;6.970;2023-10-19T12:02:39;21.38;;;9.88;;
60312;SDS011;46158;52.850;6.970;2023-10-19T12:05:06;22.35;;;10.52;;
60312;SDS011;46158;52.850;6.970;2023-10-19T12:07:38;21.10;;;10.48;;
60312;SDS011;46158;52.850;6.970;2023-10-19T12:10:07;20.83;;;10.73;;
60312;SDS011;46158;52.850;6.970;2023-10-19T12:12:34;22.02;;;10.05;;
60312;SDS011;46158;52.850;6.970;2023-10-19T12:15:01;20.67;;;10.07;;
60312;SDS011;46158;52.850;6.970;2023-10-19T12:17:27;20.60;;;10.25;;
60312;SDS011;46158;52.850;6.970;2023-10-19T12:19:55;20.02;;;9.65;;
60312;SDS011;46158;52.850;6.970;2023-10-19T12:22:20;20.83;;;9.65;;
60312;SDS011;46158;52.850;6.970;2023-10-19T12:24:46;19.83;;;9.50;;
60312;SDS011;46158;52.850;6.970;2023-10-19T12:27:13;21.10;;;8.90;;
60312;SDS011;46158;52.850;6.970;2023-10-19T12:29:39;21.20;;;8.73;;
60312;SDS011;46158;52.850;6.970;2023-10-19T12:32:05;19.55;;;8.20;;
60312;SDS011;46158;52.850;6.970;2023-10-19T12:34:31;18.60;;;8.27;;
60312;SDS011;46158;52.850;6.970;2023-10-19T12:36:58;19.50;;;7.72;;
60312;SDS011;46158;52.850;6.970;2023-10-19T12:39:24;17.08;;;7.13;;
60312;SDS011;46158;52.850;6.970;2023-10-19T12:42:10;19.40;;;7.97;;
60312;SDS011;46158;52.850;6.970;2023-10-19T12:44:36;17.30;;;7.32;;
60312;SDS011;46158;52.850;6.970;2023-10-19T12:47:06;18.83;;;7.20;;
60312;SDS011;46158;52.850;6.970;2023-10-19T12:49:38;18.08;;;7.15;;
60312;SDS011;46158;52.850;6.970;2023-10-19T12:52:06;18.20;;;7.30;;
60312;SDS011;46158;52.850;6.970;2023-10-19T12:54:33;16.77;;;7.18;;
60312;SDS011;46158;52.850;6.970;2023-10-19T12:57:02;16.60;;;6.28;;
60312;SDS011;46158;52.850;6.970;2023-10-19T12:59:35;16.02;;;6.43;;
60312;SDS011;46158;52.850;6.970;2023-10-19T13:02:05;18.27;;;6.70;;
60312;SDS011;46158;52.850;6.970;2023-10-19T13:04:33;15.73;;;6.10;;
60312;SDS011;46158;52.850;6.970;2023-10-19T13:06:59;16.75;;;6.35;;
60312;SDS011;46158;52.850;6.970;2023-10-19T13:09:26;14.02;;;5.88;;
60312;SDS011;46158;52.850;6.970;2023-10-19T13:12:01;15.88;;;6.07;;
60312;SDS011;46158;52.850;6.970;2023-10-19T13:14:27;15.30;;;5.80;;
60312;SDS011;46158;52.850;6.970;2023-10-19T13:16:53;14.27;;;5.63;;
60312;SDS011;46158;52.850;6.970;2023-10-19T13:19:19;15.50;;;5.88;;
60312;SDS011;46158;52.850;6.970;2023-10-19T13:21:51;14.15;;;5.72;;
60312;SDS011;46158;52.850;6.970;2023-10-19T13:24:20;13.55;;;5.28;;
60312;SDS011;46158;52.850;6.970;2023-10-19T13:26:46;13.88;;;5.45;;
60312;SDS011;46158;52.850;6.970;2023-10-19T13:29:12;15.55;;;5.60;;
60312;SDS011;46158;52.850;6.970;2023-10-19T13:31:40;13.93;;;5.43;;
60312;SDS011;46158;52.850;6.970;2023-10-19T13:34:05;14.68;;;5.00;;
60312;SDS011;46158;52.850;6.970;2023-10-19T13:36:35;13.53;;;4.87;;
60312;SDS011;46158;52.850;6.970;2023-10-19T13:39:01;13.43;;;5.13;;
60312;SDS011;46158;52.850;6.970;2023-10-19T13:41:28;12.48;;;4.80;;
60312;SDS011;46158;52.850;6.970;2023-10-19T13:43:54;13.25;;;4.60;;
60312;SDS011;46158;52.850;6.970;2023-10-19T13:46:20;12.35;;;4.70;;
60312;SDS011;46158;52.850;6.970;2023-10-19T13:48:49;14.43;;;5.00;;
60312;SDS011;46158;52.850;6.970;2023-10-19T13:51:18;11.60;;;4.45;;
60312;SDS011;46158;52.850;6.970;2023-10-19T13:53:47;12.18;;;4.65;;
60312;SDS011;46158;52.850;6.970;2023-10-19T13:56:15;11.18;;;4.50;;
60312;SDS011;46158;52.850;6.970;2023-10-19T13:58:40;15.05;;;5.07;;
60312;SDS011;46158;52.850;6.970;2023-10-19T14:01:07;13.95;;;4.70;;
60312;SDS011;46158;52.850;6.970;2023-10-19T14:03:34;12.43;;;4.40;;
60312;SDS011;46158;52.850;6.970;2023-10-19T14:06:00;12.00;;;4.93;;
60312;SDS011;46158;52.850;6.970;2023-10-19T14:08:26;10.85;;;4.50;;
60312;SDS011;46158;52.850;6.970;2023-10-19T14:10:51;10.98;;;4.50;;
60312;SDS011;46158;52.850;6.970;2023-10-19T14:13:17;9.75;;;4.30;;
60312;SDS011;46158;52.850;6.970;2023-10-19T14:15:43;13.05;;;4.80;;
60312;SDS011;46158;52.850;6.970;2023-10-19T14:18:09;12.27;;;4.90;;
60312;SDS011;46158;52.850;6.970;2023-10-19T14:20:36;12.13;;;4.88;;
60312;SDS011;46158;52.850;6.970;2023-10-19T14:23:04;12.60;;;4.65;;
60312;SDS011;46158;52.850;6.970;2023-10-19T14:25:30;19.73;;;4.90;;
60312;SDS011;46158;52.850;6.970;2023-10-19T14:27:56;15.38;;;5.25;;
60312;SDS011;46158;52.850;6.970;2023-10-19T14:30:28;11.10;;;4.57;;
60312;SDS011;46158;52.850;6.970;2023-10-19T14:32:53;15.18;;;5.25;;
60312;SDS011;46158;52.850;6.970;2023-10-19T14:35:20;11.35;;;4.75;;
60312;SDS011;46158;52.850;6.970;2023-10-19T14:37:52;12.07;;;4.63;;
60312;SDS011;46158;52.850;6.970;2023-10-19T14:40:24;13.25;;;4.90;;
60312;SDS011;46158;52.850;6.970;2023-10-19T14:42:52;14.32;;;5.28;;
60312;SDS011;46158;52.850;6.970;2023-10-19T14:45:19;15.27;;;5.20;;
60312;SDS011;46158;52.850;6.970;2023-10-19T14:47:48;12.10;;;4.72;;
60312;SDS011;46158;52.850;6.970;2023-10-19T14:50:19;12.38;;;4.22;;
60312;SDS011;46158;52.850;6.970;2023-10-19T14:52:47;13.18;;;4.93;;
60312;SDS011;46158;52.850;6.970;2023-10-19T14:55:14;13.30;;;4.45;;
60312;SDS011;46158;52.850;6.970;2023-10-19T14:57:43;12.45;;;4.30;;
60312;SDS011;46158;52.850;6.970;2023-10-19T15:00:11;11.75;;;4.22;;
60312;SDS011;46158;52.850;6.970;2023-10-19T15:02:50;13.00;;;4.65;;
60312;SDS011;46158;52.850;6.970;2023-10-19T15:05:17;9.40;;;3.95;;